createdAt,value
2023-04-27T00:04:11.644Z,99693.03
2023-04-27T00:09:16.343Z,99684.69
2023-04-27T00:14:20.886Z,99679.94
2023-04-27T00:19:23.933Z,99678.31
2023-04-27T00:24:28.294Z,99669.25
2023-04-27T00:29:31.303Z,99670.25
2023-04-27T00:34:34.301Z,99663.91
2023-04-27T00:39:38.634Z,99651.41
2023-04-27T00:44:42.272Z,99661.97
2023-04-27T00:49:45.541Z,99666.13
2023-04-27T00:54:52.065Z,99656.31
2023-04-27T00:59:55.098Z,99660.22
2023-04-27T01:04:58.481Z,99666.81
2023-04-27T01:10:03.146Z,99674.47
2023-04-27T01:15:07.594Z,99666.72
2023-04-27T01:20:11.731Z,99679.41
2023-04-27T01:25:16.591Z,99680.38
2023-04-27T01:30:19.946Z,99676.44
2023-04-27T01:35:22.932Z,99677.69
2023-04-27T01:40:27.761Z,99677.00
2023-04-27T01:45:31.236Z,99682.38
2023-04-27T01:50:34.268Z,99688.38
2023-04-27T01:55:39.023Z,99688.63
2023-04-27T02:00:42.038Z,99702.09
2023-04-27T02:05:45.157Z,99703.44
2023-04-27T02:10:49.513Z,99712.97
2023-04-27T02:15:52.785Z,99718.63
2023-04-27T02:20:56.018Z,99711.91
2023-04-27T02:26:00.376Z,99708.34
2023-04-27T02:31:03.582Z,99712.00
2023-04-27T02:36:07.457Z,99711.00
2023-04-27T02:41:11.844Z,99722.91
2023-04-27T02:46:14.886Z,99722.44
2023-04-27T02:51:17.900Z,99720.47
2023-04-27T02:56:22.226Z,99722.56
2023-04-27T03:01:25.257Z,99719.88
2023-04-27T03:06:28.881Z,99717.78
2023-04-27T03:11:33.577Z,99716.19
2023-04-27T03:16:37.113Z,99706.63
2023-04-27T03:21:40.631Z,99712.72
2023-04-27T03:26:44.966Z,99716.72
2023-04-27T03:31:48.007Z,99715.22
2023-04-27T03:36:51.583Z,99702.09
2023-04-27T03:41:56.150Z,99695.94
2023-04-27T03:46:59.496Z,99700.97
2023-04-27T03:52:03.491Z,99700.59
2023-04-27T03:57:07.851Z,99701.28
2023-04-27T04:02:11.916Z,99701.06
2023-04-27T04:07:15.003Z,99706.84
2023-04-27T04:12:19.343Z,99713.88
2023-04-27T04:17:22.575Z,99725.22
2023-04-27T04:22:25.854Z,99720.53
2023-04-27T04:27:30.205Z,99728.53
2023-04-27T04:32:33.670Z,99736.38
2023-04-27T04:37:37.183Z,99731.22
2023-04-27T04:42:41.699Z,99727.03
2023-04-27T04:47:44.798Z,99728.38
2023-04-27T04:52:47.829Z,99730.78
2023-04-27T04:57:52.652Z,99723.66
2023-04-27T05:02:55.923Z,99731.41
2023-04-27T05:07:59.004Z,99743.84
2023-04-27T05:13:04.653Z,99740.44
2023-04-27T05:18:09.756Z,99746.91
2023-04-27T05:23:12.774Z,99756.59
2023-04-27T05:28:17.146Z,99760.63
2023-04-27T05:33:20.180Z,99749.53
2023-04-27T05:38:23.215Z,99759.03
2023-04-27T05:43:27.636Z,99761.19
2023-04-27T05:48:30.687Z,99768.88
2023-04-27T05:53:35.599Z,99769.53
2023-04-27T05:58:39.966Z,99767.63
2023-04-27T06:03:43.084Z,99772.16
2023-04-27T06:08:46.421Z,99777.09
2023-04-27T06:13:51.006Z,99780.13
2023-04-27T06:18:54.009Z,99778.50
2023-04-27T06:23:57.400Z,99787.38
2023-04-27T06:29:03.652Z,99785.38
2023-04-27T06:34:07.195Z,99788.50
2023-04-27T06:39:10.233Z,99795.06
2023-04-27T06:44:14.567Z,99804.19
2023-04-27T06:49:17.666Z,99810.19
2023-04-27T06:54:20.762Z,99820.72
2023-04-27T06:59:25.503Z,99823.59
2023-04-27T07:04:29.150Z,99822.75
2023-04-27T07:09:32.900Z,99827.19
2023-04-27T07:14:38.029Z,99823.59
2023-04-27T07:19:42.089Z,99825.13
2023-04-27T07:24:45.635Z,99821.69
2023-04-27T07:29:50.007Z,99816.28
2023-04-27T07:34:54.304Z,99820.34
2023-04-27T07:39:57.689Z,99817.31
2023-04-27T07:45:02.194Z,99819.94
2023-04-27T07:50:06.203Z,99820.13
2023-04-27T07:55:09.819Z,99827.06
2023-04-27T08:00:16.026Z,99826.59
2023-04-27T08:05:19.210Z,99817.41
2023-04-27T08:10:23.501Z,99810.78
2023-04-27T08:15:28.109Z,99806.75
2023-04-27T08:20:31.123Z,99812.56
2023-04-27T08:25:34.142Z,99816.69
2023-04-27T08:30:38.462Z,99815.75
2023-04-27T08:35:41.548Z,99809.81
2023-04-27T08:40:44.672Z,99810.03
2023-04-27T08:45:51.064Z,99815.94
2023-04-27T08:50:54.834Z,99813.28
2023-04-27T08:55:57.847Z,99811.88
2023-04-27T09:01:06.651Z,99814.06
2023-04-27T09:06:10.453Z,99813.28
2023-04-27T09:11:13.852Z,99802.19
2023-04-27T09:16:24.402Z,99801.38
2023-04-27T09:21:29.009Z,99805.25
2023-04-27T09:26:32.025Z,99799.53
2023-04-27T09:31:36.953Z,99793.13
2023-04-27T09:36:41.329Z,99791.69
2023-04-27T09:41:44.454Z,99786.00
2023-04-27T09:46:48.950Z,99785.41
2023-04-27T09:51:54.306Z,99782.88
2023-04-27T09:57:09.782Z,99784.59
2023-04-27T10:07:27.890Z,99773.56
2023-04-27T10:12:36.611Z,99759.84
2023-04-27T10:17:49.039Z,99763.91
2023-04-27T10:22:52.459Z,99746.91
2023-04-27T10:27:57.509Z,99767.25
2023-04-27T10:33:07.390Z,99757.13
2023-04-27T10:38:12.156Z,99762.72
2023-04-27T10:43:17.615Z,99750.00
2023-04-27T10:48:22.314Z,99752.19
2023-04-27T10:53:27.120Z,99744.09
2023-04-27T10:58:41.515Z,99751.78
2023-04-27T11:03:57.724Z,99747.28
2023-04-27T11:09:01.196Z,99751.75
2023-04-27T11:14:04.488Z,99738.41
2023-04-27T11:19:08.845Z,99727.47
2023-04-27T11:24:14.572Z,99730.53
2023-04-27T11:29:18.386Z,99720.41
2023-04-27T11:34:24.052Z,99724.44
2023-04-27T11:39:29.147Z,99735.53
2023-04-27T11:44:34.545Z,99723.56
2023-04-27T11:49:39.290Z,99718.53
2023-04-27T11:54:48.574Z,99716.94
2023-04-27T11:59:51.944Z,99713.16
2023-04-27T12:04:56.587Z,99707.09
2023-04-27T12:10:01.445Z,99703.44
2023-04-27T12:15:05.025Z,99710.03
2023-04-27T12:20:10.794Z,99706.22
2023-04-27T12:25:13.871Z,99706.00
2023-04-27T12:30:17.335Z,99690.09
2023-04-27T12:35:21.888Z,99698.75
2023-04-27T12:40:24.984Z,99688.09
2023-04-27T12:45:28.319Z,99672.44
2023-04-27T12:50:33.379Z,99668.69
2023-04-27T12:55:37.276Z,99667.59
2023-04-27T13:00:40.320Z,99670.78
2023-04-27T13:05:45.568Z,99666.06
2023-04-27T13:10:48.705Z,99661.09
2023-04-27T13:15:51.841Z,99665.25
2023-04-27T13:20:56.257Z,99664.47
2023-04-27T13:25:59.416Z,99653.41
2023-04-27T13:31:02.481Z,99644.19
2023-04-27T13:36:07.514Z,99633.34
2023-04-27T13:41:10.611Z,99634.06
2023-04-27T13:46:13.720Z,99641.34
2023-04-27T13:51:18.349Z,99638.72
2023-04-27T13:56:21.580Z,99640.03
2023-04-27T14:01:24.935Z,99631.56
2023-04-27T14:06:29.382Z,99629.06
2023-04-27T14:11:39.464Z,99629.53
2023-04-27T14:16:48.366Z,99636.13
2023-04-27T14:21:53.034Z,99618.59
2023-04-27T14:26:56.292Z,99616.59
2023-04-27T14:31:59.742Z,99626.50
2023-04-27T14:37:04.085Z,99613.31
2023-04-27T14:42:07.153Z,99611.66
2023-04-27T14:47:10.752Z,99620.38
2023-04-27T14:52:15.193Z,99614.97
2023-04-27T14:57:18.168Z,99623.22
2023-04-27T15:02:21.263Z,99609.59
2023-04-27T15:07:25.610Z,99600.13
2023-04-27T15:12:28.935Z,99606.25
2023-04-27T15:17:32.021Z,99604.53
2023-04-27T15:22:36.507Z,99602.09
2023-04-27T15:27:39.533Z,99586.59
2023-04-27T15:32:42.901Z,99583.84
2023-04-27T15:37:47.820Z,99572.81
2023-04-27T15:42:51.677Z,99559.97
2023-04-27T15:47:55.228Z,99547.59
2023-04-27T15:52:59.559Z,99542.00
2023-04-27T15:58:02.711Z,99539.88
2023-04-27T16:03:08.764Z,99538.88
2023-04-27T16:08:15.307Z,99524.13
2023-04-27T16:13:18.297Z,99526.06
2023-04-27T16:18:21.313Z,99527.50
2023-04-27T16:23:25.865Z,99520.31
2023-04-27T16:28:28.945Z,99514.56
2023-04-27T16:33:32.185Z,99520.13
2023-04-27T16:38:38.711Z,99513.41
2023-04-27T16:43:42.755Z,99510.53
2023-04-27T16:48:45.886Z,99508.25
2023-04-27T16:53:50.984Z,99516.63
2023-04-27T16:58:54.385Z,99519.66
2023-04-27T17:03:58.310Z,99517.09
2023-04-27T17:09:03.042Z,99523.13
2023-04-27T17:14:06.334Z,99522.38
2023-04-27T17:19:09.774Z,99519.56
2023-04-27T17:24:14.523Z,99515.66
2023-04-27T17:29:17.566Z,99522.06
2023-04-27T17:34:20.888Z,99504.94
2023-04-27T17:39:25.486Z,99500.94
2023-04-27T17:44:28.510Z,99491.59
2023-04-27T17:49:32.750Z,99495.34
2023-04-27T17:54:37.139Z,99504.31
2023-04-27T17:59:40.126Z,99494.38
2023-04-27T18:04:43.258Z,99493.94
2023-04-27T18:09:47.795Z,99494.78
2023-04-27T18:14:51.175Z,99491.78
2023-04-27T18:20:06.919Z,99485.50
2023-04-27T18:25:13.244Z,99476.50
2023-04-27T18:30:16.567Z,99477.56
2023-04-27T18:35:21.273Z,99478.28
2023-04-27T18:40:26.000Z,99478.97
2023-04-27T18:45:29.197Z,99479.31
2023-04-27T18:50:32.780Z,99479.34
2023-04-27T18:55:39.321Z,99494.97
2023-04-27T19:00:42.478Z,99495.94
2023-04-27T19:05:45.990Z,99496.94
2023-04-27T19:10:51.530Z,99501.16
2023-04-27T19:15:55.020Z,99495.88
2023-04-27T19:20:59.130Z,99502.97
2023-04-27T19:26:12.420Z,99506.00
2023-04-27T19:31:17.160Z,99489.78
2023-04-27T19:36:20.297Z,99480.22
2023-04-27T19:41:25.074Z,99490.38
2023-04-27T19:46:28.112Z,99491.34
2023-04-27T19:51:31.602Z,99499.13
2023-04-27T19:56:35.906Z,99483.78
2023-04-27T20:01:38.920Z,99485.28
2023-04-27T20:06:43.257Z,99488.00
2023-04-27T20:11:47.682Z,99477.78
2023-04-27T20:16:50.738Z,99467.56
2023-04-27T20:21:53.715Z,99477.72
2023-04-27T20:26:58.607Z,99475.06
2023-04-27T20:32:02.256Z,99466.19
2023-04-27T20:37:05.950Z,99465.84
2023-04-27T20:42:12.797Z,99468.84
2023-04-27T20:47:16.155Z,99461.13
2023-04-27T20:52:19.191Z,99453.97
2023-04-27T20:57:23.945Z,99446.41
2023-04-27T21:02:27.352Z,99444.69
2023-04-27T21:07:30.434Z,99442.78
2023-04-27T21:12:35.011Z,99448.19
2023-04-27T21:17:38.109Z,99439.41
2023-04-27T21:22:41.186Z,99444.84
2023-04-27T21:27:45.594Z,99433.31
2023-04-27T21:32:48.588Z,99431.91
2023-04-27T21:37:52.073Z,99427.78
2023-04-27T21:42:57.177Z,99424.00
2023-04-27T21:48:00.750Z,99416.84
2023-04-27T21:53:04.395Z,99438.91
2023-04-27T21:58:09.127Z,99423.94
2023-04-27T22:03:12.274Z,99423.94
2023-04-27T22:08:17.161Z,99436.25
2023-04-27T22:13:21.659Z,99430.00
2023-04-27T22:18:25.078Z,99422.34
2023-04-27T22:23:28.586Z,99416.91
2023-04-27T22:28:33.109Z,99418.41
2023-04-27T22:33:37.401Z,99406.16
2023-04-27T22:38:40.637Z,99413.94
2023-04-27T22:43:44.982Z,99410.41
2023-04-27T22:48:47.994Z,99395.47
2023-04-27T22:53:50.973Z,99391.34
2023-04-27T22:58:56.184Z,99382.22
2023-04-27T23:03:59.323Z,99387.97
2023-04-27T23:09:03.094Z,99384.22
2023-04-27T23:14:08.220Z,99387.13
2023-04-27T23:19:11.612Z,99379.66
2023-04-27T23:24:14.911Z,99379.06
2023-04-27T23:29:19.400Z,99374.13
2023-04-27T23:34:22.402Z,99365.44
2023-04-27T23:39:25.427Z,99353.69
2023-04-27T23:44:29.964Z,99349.19
2023-04-27T23:49:33.471Z,99348.34
2023-04-27T23:54:36.743Z,99345.97
2023-04-27T23:59:41.560Z,99345.56
